createdAt,value
2019-01-25T00:00:36.938Z,-5.51
2019-01-25T00:03:09.800Z,-5.54
2019-01-25T00:05:34.648Z,-5.54
2019-01-25T00:08:01.866Z,-5.54
2019-01-25T00:10:30.081Z,-5.52
2019-01-25T00:12:57.303Z,-5.53
2019-01-25T00:15:25.450Z,-5.52
2019-01-25T00:17:52.607Z,-5.53
2019-01-25T00:20:19.838Z,-5.55
2019-01-25T00:22:47.051Z,-5.57
2019-01-25T00:25:14.371Z,-5.59
2019-01-25T00:27:41.587Z,-5.60
2019-01-25T00:30:10.544Z,-5.60
2019-01-25T00:32:37.719Z,-5.59
2019-01-25T00:35:05.784Z,-5.58
2019-01-25T00:37:33.034Z,-5.57
2019-01-25T00:40:06.078Z,-5.59
2019-01-25T00:42:29.667Z,-5.59
2019-01-25T00:44:56.962Z,-5.61
2019-01-25T00:47:24.075Z,-5.68
2019-01-25T00:49:53.143Z,-5.74
2019-01-25T00:52:20.349Z,-5.75
2019-01-25T00:54:49.276Z,-5.77
2019-01-25T00:57:17.512Z,-5.79
2019-01-25T00:59:44.734Z,-5.82
2019-01-25T01:02:11.891Z,-5.79
2019-01-25T01:04:40.772Z,-5.80
2019-01-25T01:07:07.979Z,-5.80
2019-01-25T01:09:35.422Z,-5.81
2019-01-25T01:12:02.843Z,-5.81
2019-01-25T01:14:30.040Z,-5.80
2019-01-25T01:16:57.393Z,-5.81
2019-01-25T01:19:24.742Z,-5.81
2019-01-25T01:21:51.953Z,-5.82
2019-01-25T01:24:20.945Z,-5.83
2019-01-25T01:26:48.051Z,-5.85
2019-01-25T01:29:16.644Z,-5.86
2019-01-25T01:31:45.721Z,-5.88
2019-01-25T01:34:12.867Z,-5.88
2019-01-25T01:36:41.857Z,-5.90
2019-01-25T01:39:09.120Z,-5.93
2019-01-25T01:41:38.240Z,-5.92
2019-01-25T01:44:05.532Z,-5.91
2019-01-25T01:46:32.952Z,-5.91
2019-01-25T01:49:00.261Z,-5.92
2019-01-25T01:51:27.505Z,-5.91
2019-01-25T01:53:54.620Z,-5.94
2019-01-25T01:56:21.928Z,-5.93
2019-01-25T01:58:49.164Z,-5.92
2019-01-25T02:01:16.655Z,-5.90
2019-01-25T02:03:43.759Z,-5.88
2019-01-25T02:06:10.868Z,-5.91
2019-01-25T02:08:37.969Z,-5.90
2019-01-25T02:11:05.079Z,-5.90
2019-01-25T02:13:32.309Z,-5.89
2019-01-25T02:15:59.451Z,-5.91
2019-01-25T02:18:26.568Z,-5.91
2019-01-25T02:20:53.764Z,-5.93
2019-01-25T02:23:20.883Z,-5.92
2019-01-25T02:25:47.986Z,-5.93
2019-01-25T02:28:15.091Z,-5.90
2019-01-25T02:30:42.201Z,-5.91
2019-01-25T02:33:09.325Z,-5.90
2019-01-25T02:35:38.034Z,-5.87
2019-01-25T02:38:07.028Z,-5.85
2019-01-25T02:40:39.272Z,-5.84
2019-01-25T02:43:03.747Z,-5.82
2019-01-25T02:45:30.989Z,-5.80
2019-01-25T02:47:58.245Z,-5.81
2019-01-25T02:50:27.076Z,-5.78
2019-01-25T02:52:54.363Z,-5.75
2019-01-25T02:55:21.472Z,-5.77
2019-01-25T02:57:50.382Z,-5.77
2019-01-25T03:00:22.496Z,-5.78
2019-01-25T03:02:50.015Z,-5.80
2019-01-25T03:05:19.245Z,-5.79
2019-01-25T03:07:46.956Z,-5.79
2019-01-25T03:10:14.810Z,-5.76
2019-01-25T03:12:42.148Z,-5.74
2019-01-25T03:15:12.120Z,-5.74
2019-01-25T03:17:39.520Z,-5.73
2019-01-25T03:20:07.595Z,-5.74
2019-01-25T03:22:34.947Z,-5.69
2019-01-25T03:25:02.171Z,-5.68
2019-01-25T03:27:29.350Z,-5.65
2019-01-25T03:29:56.603Z,-5.62
2019-01-25T03:32:23.958Z,-5.60
2019-01-25T03:34:51.087Z,-5.58
2019-01-25T03:37:18.188Z,-5.57
2019-01-25T03:39:47.305Z,-5.58
2019-01-25T03:42:14.610Z,-5.57
2019-01-25T03:44:44.645Z,-5.56
2019-01-25T03:47:12.024Z,-5.57
2019-01-25T03:49:39.236Z,-5.55
2019-01-25T03:52:06.451Z,-5.54
2019-01-25T03:54:33.656Z,-5.55
2019-01-25T03:57:00.852Z,-5.56
2019-01-25T03:59:28.145Z,-5.55
2019-01-25T04:01:55.471Z,-5.52
2019-01-25T04:04:22.760Z,-5.49
2019-01-25T04:06:50.888Z,-5.48
2019-01-25T04:09:18.075Z,-5.46
2019-01-25T04:11:45.309Z,-5.45
2019-01-25T04:14:12.593Z,-5.44
2019-01-25T04:16:40.036Z,-5.41
2019-01-25T04:19:07.247Z,-5.37
2019-01-25T04:21:34.479Z,-5.35
2019-01-25T04:24:02.040Z,-5.34
2019-01-25T04:26:30.449Z,-5.32
2019-01-25T04:28:58.717Z,-5.29
2019-01-25T04:31:28.482Z,-5.25
2019-01-25T04:33:55.742Z,-5.21
2019-01-25T04:36:26.466Z,-5.17
2019-01-25T04:38:57.836Z,-5.15
2019-01-25T04:41:27.077Z,-5.15
2019-01-25T04:43:54.185Z,-5.16
2019-01-25T04:46:21.304Z,-5.16
2019-01-25T04:48:48.400Z,-5.15
2019-01-25T04:51:15.535Z,-5.12
2019-01-25T04:53:42.634Z,-5.08
2019-01-25T04:56:09.733Z,-5.07
2019-01-25T04:58:36.835Z,-5.06
2019-01-25T05:01:08.553Z,-5.09
2019-01-25T05:03:37.803Z,-5.10
2019-01-25T05:06:05.917Z,-5.09
2019-01-25T05:08:33.028Z,-5.06
2019-01-25T05:11:00.197Z,-5.03
2019-01-25T05:13:27.299Z,-5.00
2019-01-25T05:15:54.417Z,-4.98
2019-01-25T05:18:21.619Z,-4.93
2019-01-25T05:20:50.668Z,-4.89
2019-01-25T05:23:17.726Z,-4.87
2019-01-25T05:25:44.839Z,-4.84
2019-01-25T05:28:18.479Z,-4.81
2019-01-25T05:31:11.198Z,-4.79
2019-01-25T05:33:38.313Z,-4.76
2019-01-25T05:36:05.528Z,-4.72
2019-01-25T05:38:32.666Z,-4.73
2019-01-25T05:40:59.799Z,-4.73
2019-01-25T05:43:30.613Z,-4.70
2019-01-25T05:45:57.716Z,-4.69
2019-01-25T05:48:28.291Z,-4.67
2019-01-25T05:50:59.580Z,-4.68
2019-01-25T05:53:26.685Z,-4.70
2019-01-25T05:55:53.801Z,-4.69
2019-01-25T05:58:22.301Z,-4.67
2019-01-25T06:00:50.652Z,-4.66
2019-01-25T06:03:17.967Z,-4.65
2019-01-25T06:05:45.966Z,-4.63
2019-01-25T06:08:30.686Z,-4.62
2019-01-25T06:11:08.842Z,-4.58
2019-01-25T06:13:39.537Z,-4.55
2019-01-25T06:16:07.021Z,-4.51
2019-01-25T06:18:34.391Z,-4.47
2019-01-25T06:21:01.708Z,-4.45
2019-01-25T06:23:29.014Z,-4.43
2019-01-25T06:25:57.354Z,-4.40
2019-01-25T06:28:24.592Z,-4.38
2019-01-25T06:30:52.565Z,-4.37
2019-01-25T06:33:19.952Z,-4.38
2019-01-25T06:35:47.404Z,-4.36
2019-01-25T06:38:14.750Z,-4.35
2019-01-25T06:40:41.888Z,-4.33
2019-01-25T06:43:08.990Z,-4.31
2019-01-25T06:45:36.084Z,-4.29
2019-01-25T06:48:03.427Z,-4.27
2019-01-25T06:50:30.568Z,-4.26
2019-01-25T06:52:57.665Z,-4.30
2019-01-25T06:55:24.777Z,-4.33
2019-01-25T06:58:11.529Z,-4.34
2019-01-25T07:00:43.279Z,-4.34
2019-01-25T07:03:10.369Z,-4.33
2019-01-25T07:05:37.470Z,-4.31
2019-01-25T07:08:04.565Z,-4.28
2019-01-25T07:10:31.669Z,-4.25
2019-01-25T07:12:58.762Z,-4.21
2019-01-25T07:15:25.864Z,-4.22
2019-01-25T07:17:52.970Z,-4.20
2019-01-25T07:20:20.061Z,-4.19
2019-01-25T07:22:47.171Z,-4.17
2019-01-25T07:25:14.566Z,-4.16
2019-01-25T07:27:41.662Z,-4.16
2019-01-25T07:30:09.836Z,-4.15
2019-01-25T07:32:36.938Z,-4.16
2019-01-25T07:35:04.944Z,-4.15
2019-01-25T07:37:32.096Z,-4.16
2019-01-25T07:40:00.658Z,-4.15
2019-01-25T07:42:28.097Z,-4.13
2019-01-25T07:44:55.504Z,-4.11
2019-01-25T07:47:22.606Z,-4.10
2019-01-25T07:49:49.705Z,-4.06
2019-01-25T07:52:16.839Z,-4.06
2019-01-25T07:54:44.041Z,-4.04
2019-01-25T07:57:11.092Z,-4.00
2019-01-25T07:59:38.205Z,-3.95
2019-01-25T08:02:05.303Z,-3.93
2019-01-25T08:04:32.412Z,-3.93
2019-01-25T08:07:02.907Z,-3.97
2019-01-25T08:09:30.013Z,-3.98
2019-01-25T08:11:57.119Z,-3.99
2019-01-25T08:14:24.278Z,-4.00
2019-01-25T08:16:51.358Z,-4.02
2019-01-25T08:19:21.249Z,-4.02
2019-01-25T08:21:48.540Z,-3.97
2019-01-25T08:24:15.710Z,-3.92
2019-01-25T08:26:45.887Z,-3.86
2019-01-25T08:29:12.981Z,-3.83
2019-01-25T08:31:42.441Z,-3.78
2019-01-25T08:34:09.575Z,-3.75
2019-01-25T08:36:36.917Z,-3.71
2019-01-25T08:39:07.545Z,-3.66
2019-01-25T08:41:34.795Z,-3.62
2019-01-25T08:44:05.124Z,-3.58
2019-01-25T08:46:33.871Z,-3.54
2019-01-25T08:49:01.469Z,-3.50
2019-01-25T08:51:28.569Z,-3.49
2019-01-25T08:53:55.744Z,-3.47
2019-01-25T08:56:22.836Z,-3.43
2019-01-25T08:58:50.146Z,-3.41
2019-01-25T09:01:17.341Z,-3.39
2019-01-25T09:03:47.361Z,-3.34
2019-01-25T09:06:14.464Z,-3.29
2019-01-25T09:08:49.259Z,-3.26
2019-01-25T09:11:16.412Z,-3.21
2019-01-25T09:13:43.521Z,-3.18
2019-01-25T09:16:10.644Z,-3.13
2019-01-25T09:18:37.775Z,-3.10
2019-01-25T09:21:16.160Z,-3.07
2019-01-25T09:23:43.370Z,-3.01
2019-01-25T09:26:10.491Z,-2.96
2019-01-25T09:28:37.593Z,-2.90
2019-01-25T09:31:04.809Z,-2.87
2019-01-25T09:33:34.301Z,-2.82
2019-01-25T09:36:08.994Z,-2.79
2019-01-25T09:38:36.124Z,-2.78
2019-01-25T09:41:03.354Z,-2.79
2019-01-25T09:43:30.472Z,-2.74
2019-01-25T09:45:57.604Z,-2.71
2019-01-25T09:48:24.721Z,-2.66
2019-01-25T09:50:52.814Z,-2.63
2019-01-25T09:53:20.462Z,-2.62
2019-01-25T09:55:47.553Z,-2.60
2019-01-25T09:58:17.328Z,-2.60
2019-01-25T10:00:56.888Z,-2.60
2019-01-25T10:03:26.669Z,-2.60
2019-01-25T10:05:56.571Z,-2.56
2019-01-25T10:08:25.851Z,-2.51
2019-01-25T10:10:52.952Z,-2.50
2019-01-25T10:13:20.081Z,-2.47
2019-01-25T10:15:47.186Z,-2.42
2019-01-25T10:18:25.110Z,-2.37
2019-01-25T10:20:55.245Z,-2.33
2019-01-25T10:23:22.446Z,-2.28
2019-01-25T10:25:55.251Z,-2.25
2019-01-25T10:28:24.387Z,-2.20
2019-01-25T10:30:51.767Z,-2.15
2019-01-25T10:33:20.325Z,-2.10
2019-01-25T10:35:47.600Z,-2.07
2019-01-25T10:38:14.854Z,-2.05
2019-01-25T10:40:42.014Z,-2.04
2019-01-25T10:43:12.000Z,-1.99
2019-01-25T10:45:39.921Z,-1.95
2019-01-25T10:48:07.450Z,-1.90
2019-01-25T10:50:34.657Z,-1.88
2019-01-25T10:53:03.741Z,-1.85
2019-01-25T10:55:31.054Z,-1.79
2019-01-25T10:57:58.165Z,-1.76
2019-01-25T11:00:25.446Z,-1.73
2019-01-25T11:02:57.873Z,-1.69
2019-01-25T11:05:23.944Z,-1.66
2019-01-25T11:07:51.115Z,-1.63
2019-01-25T11:10:20.304Z,-1.61
2019-01-25T11:12:47.637Z,-1.59
2019-01-25T11:15:18.865Z,-1.55
2019-01-25T11:17:46.206Z,-1.52
2019-01-25T11:20:16.075Z,-1.48
2019-01-25T11:22:43.433Z,-1.41
2019-01-25T11:25:14.372Z,-1.38
2019-01-25T11:27:41.729Z,-1.35
2019-01-25T11:30:10.530Z,-1.30
2019-01-25T11:32:38.791Z,-1.29
2019-01-25T11:35:06.107Z,-1.28
2019-01-25T11:37:33.484Z,-1.24
2019-01-25T11:40:00.801Z,-1.22
2019-01-25T11:42:27.982Z,-1.21
2019-01-25T11:44:55.335Z,-1.19
2019-01-25T11:47:22.465Z,-1.19
2019-01-25T11:49:49.872Z,-1.18
2019-01-25T11:52:18.261Z,-1.16
2019-01-25T11:54:45.472Z,-1.13
2019-01-25T11:57:15.371Z,-1.11
2019-01-25T11:59:43.580Z,-1.09
2019-01-25T12:02:11.765Z,-1.08
2019-01-25T12:04:42.166Z,-1.10
2019-01-25T12:07:10.443Z,-1.11
2019-01-25T12:09:38.895Z,-1.12
2019-01-25T12:12:06.016Z,-1.14
2019-01-25T12:14:33.152Z,-1.15
2019-01-25T12:17:01.930Z,-1.15
2019-01-25T12:19:29.372Z,-1.16
2019-01-25T12:21:56.549Z,-1.15
2019-01-25T12:24:23.638Z,-1.15
2019-01-25T12:26:50.741Z,-1.13
2019-01-25T12:29:20.115Z,-1.08
2019-01-25T12:31:47.382Z,-1.06
2019-01-25T12:34:14.475Z,-1.05
2019-01-25T12:36:41.601Z,-1.05
2019-01-25T12:39:09.208Z,-1.05
2019-01-25T12:41:36.315Z,-1.05
2019-01-25T12:44:03.876Z,-1.04
2019-01-25T12:46:32.113Z,-1.04
2019-01-25T12:48:59.383Z,-1.04
2019-01-25T12:51:35.982Z,-1.05
2019-01-25T12:54:03.688Z,-1.04
2019-01-25T12:56:30.794Z,-1.03
2019-01-25T12:58:58.020Z,-1.01
2019-01-25T13:01:25.117Z,-1.00
2019-01-25T13:03:52.332Z,-0.97
2019-01-25T13:06:19.500Z,-0.97
2019-01-25T13:08:46.593Z,-0.93
2019-01-25T13:11:13.677Z,-0.95
2019-01-25T13:13:40.781Z,-1.00
2019-01-25T13:16:07.933Z,-1.01
2019-01-25T13:18:35.050Z,-1.02
2019-01-25T13:21:02.145Z,-0.98
2019-01-25T13:23:31.809Z,-0.98
2019-01-25T13:25:58.923Z,-0.94
2019-01-25T13:28:26.186Z,-0.96
2019-01-25T13:30:56.605Z,-0.95
2019-01-25T13:33:23.698Z,-0.94
2019-01-25T13:35:50.789Z,-0.96
2019-01-25T13:38:18.936Z,-1.01
2019-01-25T13:40:47.806Z,-1.07
2019-01-25T13:43:14.900Z,-1.07
2019-01-25T13:45:42.020Z,-1.07
2019-01-25T13:48:09.228Z,-1.08
2019-01-25T13:50:38.052Z,-1.10
2019-01-25T13:53:07.100Z,-1.12
2019-01-25T13:55:34.223Z,-1.13
2019-01-25T13:58:01.365Z,-1.18
2019-01-25T14:00:30.539Z,-1.22
2019-01-25T14:02:57.674Z,-1.25
2019-01-25T14:05:24.798Z,-1.28
2019-01-25T14:07:54.649Z,-1.28
2019-01-25T14:10:26.265Z,-1.28
2019-01-25T14:12:53.363Z,-1.27
2019-01-25T14:15:20.554Z,-1.30
2019-01-25T14:17:49.332Z,-1.34
2019-01-25T14:20:23.504Z,-1.39
2019-01-25T14:22:49.555Z,-1.42
2019-01-25T14:25:19.500Z,-1.42
2019-01-25T14:27:46.665Z,-1.42
2019-01-25T14:30:25.695Z,-1.48
2019-01-25T14:32:52.788Z,-1.51
2019-01-25T14:35:20.012Z,-1.57
2019-01-25T14:37:49.891Z,-1.58
2019-01-25T14:40:17.007Z,-1.60
2019-01-25T14:42:44.129Z,-1.62
2019-01-25T14:45:20.274Z,-1.61
2019-01-25T14:47:47.481Z,-1.58
2019-01-25T14:50:16.677Z,-1.54
2019-01-25T14:52:43.773Z,-1.52
2019-01-25T14:55:11.012Z,-1.50
2019-01-25T14:57:38.227Z,-1.47
2019-01-25T15:00:07.621Z,-1.44
2019-01-25T15:02:35.009Z,-1.42
2019-01-25T15:05:02.205Z,-1.42
2019-01-25T15:07:29.304Z,-1.45
2019-01-25T15:09:56.412Z,-1.45
2019-01-25T15:12:23.510Z,-1.45
2019-01-25T15:14:50.595Z,-1.45
2019-01-25T15:17:17.689Z,-1.46
2019-01-25T15:19:44.920Z,-1.43
2019-01-25T15:22:12.007Z,-1.46
2019-01-25T15:24:39.102Z,-1.48
2019-01-25T15:27:06.297Z,-1.50
2019-01-25T15:29:33.441Z,-1.49
2019-01-25T15:32:00.580Z,-1.51
2019-01-25T15:34:27.690Z,-1.52
2019-01-25T15:36:54.783Z,-1.52
2019-01-25T15:39:21.925Z,-1.54
2019-01-25T15:41:49.035Z,-1.56
2019-01-25T15:44:16.134Z,-1.54
2019-01-25T15:46:43.238Z,-1.54
2019-01-25T15:49:10.384Z,-1.54
2019-01-25T15:51:37.560Z,-1.56
2019-01-25T15:54:04.738Z,-1.57
2019-01-25T15:56:31.828Z,-1.56
2019-01-25T15:58:58.927Z,-1.59
2019-01-25T16:01:26.029Z,-1.61
2019-01-25T16:03:53.136Z,-1.64
2019-01-25T16:06:20.279Z,-1.65
2019-01-25T16:08:47.377Z,-1.67
2019-01-25T16:11:14.473Z,-1.67
2019-01-25T16:13:41.568Z,-1.70
2019-01-25T16:16:08.665Z,-1.71
2019-01-25T16:18:35.777Z,-1.72
2019-01-25T16:21:03.017Z,-1.74
2019-01-25T16:23:30.132Z,-1.74
2019-01-25T16:25:57.218Z,-1.75
2019-01-25T16:28:24.348Z,-1.78
2019-01-25T16:30:51.464Z,-1.80
2019-01-25T16:33:18.578Z,-1.81
2019-01-25T16:35:45.701Z,-1.82
2019-01-25T16:38:12.815Z,-1.85
2019-01-25T16:40:39.911Z,-1.87
2019-01-25T16:43:08.772Z,-1.92
2019-01-25T16:45:38.193Z,-1.93
2019-01-25T16:48:05.886Z,-1.92
2019-01-25T16:50:33.549Z,-1.91
2019-01-25T16:53:00.683Z,-1.91
2019-01-25T16:55:27.887Z,-1.91
2019-01-25T16:57:54.977Z,-1.94
2019-01-25T17:00:30.726Z,-1.93
2019-01-25T17:02:57.825Z,-1.93
2019-01-25T17:05:25.126Z,-1.94
2019-01-25T17:07:52.236Z,-1.93
2019-01-25T17:10:19.348Z,-1.94
2019-01-25T17:12:46.480Z,-1.95
2019-01-25T17:15:14.202Z,-1.97
2019-01-25T17:17:41.497Z,-2.00
2019-01-25T17:20:08.987Z,-2.02
2019-01-25T17:22:36.124Z,-2.04
2019-01-25T17:25:04.187Z,-2.05
2019-01-25T17:27:31.304Z,-2.05
2019-01-25T17:29:58.421Z,-2.05
2019-01-25T17:32:25.530Z,-2.05
2019-01-25T17:34:52.624Z,-2.06
2019-01-25T17:37:19.726Z,-2.06
2019-01-25T17:39:46.921Z,-2.07
2019-01-25T17:42:14.018Z,-2.05
2019-01-25T17:44:41.626Z,-2.05
2019-01-25T17:47:08.789Z,-2.04
2019-01-25T17:49:35.881Z,-2.04
2019-01-25T17:52:03.226Z,-2.05
2019-01-25T17:54:30.357Z,-2.07
2019-01-25T17:56:57.484Z,-2.07
2019-01-25T17:59:25.728Z,-2.09
2019-01-25T18:01:52.832Z,-2.10
2019-01-25T18:04:19.980Z,-2.11
2019-01-25T18:06:47.076Z,-2.12
2019-01-25T18:09:14.213Z,-2.10
2019-01-25T18:11:41.299Z,-2.12
2019-01-25T18:14:08.476Z,-2.12
2019-01-25T18:16:35.898Z,-2.14
2019-01-25T18:19:03.348Z,-2.16
2019-01-25T18:21:30.699Z,-2.21
2019-01-25T18:23:58.041Z,-2.25
2019-01-25T18:26:27.038Z,-2.24
2019-01-25T18:29:19.744Z,-2.22
2019-01-25T18:31:48.650Z,-2.20
2019-01-25T18:34:16.054Z,-2.22
2019-01-25T18:36:43.414Z,-2.21
2019-01-25T18:39:12.124Z,-2.21
2019-01-25T18:41:41.147Z,-2.21
2019-01-25T18:44:08.442Z,-2.19
2019-01-25T18:46:37.357Z,-2.17
2019-01-25T18:49:04.450Z,-2.19
2019-01-25T18:51:31.561Z,-2.21
2019-01-25T18:53:58.673Z,-2.23
2019-01-25T18:56:26.098Z,-2.23
2019-01-25T18:58:55.169Z,-2.24
2019-01-25T19:01:22.284Z,-2.22
2019-01-25T19:03:50.746Z,-2.20
2019-01-25T19:06:18.021Z,-2.21
2019-01-25T19:08:46.918Z,-2.23
2019-01-25T19:11:14.261Z,-2.21
2019-01-25T19:13:41.599Z,-2.21
2019-01-25T19:16:10.115Z,-2.21
2019-01-25T19:18:37.467Z,-2.19
2019-01-25T19:21:04.677Z,-2.19
2019-01-25T19:23:32.875Z,-2.19
2019-01-25T19:25:59.970Z,-2.19
2019-01-25T19:28:27.552Z,-2.18
2019-01-25T19:30:54.860Z,-2.20
2019-01-25T19:33:23.398Z,-2.19
2019-01-25T19:35:50.819Z,-2.18
2019-01-25T19:38:20.203Z,-2.18
2019-01-25T19:40:47.589Z,-2.19
2019-01-25T19:43:16.613Z,-2.18
2019-01-25T19:45:45.731Z,-2.19
2019-01-25T19:48:13.032Z,-2.16
2019-01-25T19:50:42.989Z,-2.18
2019-01-25T19:53:10.595Z,-2.18
2019-01-25T19:55:38.555Z,-2.20
2019-01-25T19:58:07.712Z,-2.22
2019-01-25T20:00:36.889Z,-2.22
2019-01-25T20:03:05.951Z,-2.23
2019-01-25T20:05:34.966Z,-2.26
2019-01-25T20:08:02.654Z,-2.28
2019-01-25T20:10:29.993Z,-2.29
2019-01-25T20:12:57.569Z,-2.30
2019-01-25T20:15:26.591Z,-2.30
2019-01-25T20:17:54.149Z,-2.29
2019-01-25T20:20:23.713Z,-2.30
2019-01-25T20:22:53.286Z,-2.31
2019-01-25T20:25:20.843Z,-2.32
2019-01-25T20:27:48.184Z,-2.33
2019-01-25T20:30:18.439Z,-2.32
2019-01-25T20:32:45.917Z,-2.32
2019-01-25T20:35:18.240Z,-2.31
2019-01-25T20:37:48.343Z,-2.34
2019-01-25T20:40:15.971Z,-2.35
2019-01-25T20:42:43.241Z,-2.36
2019-01-25T20:45:13.715Z,-2.37
2019-01-25T20:47:41.209Z,-2.36
2019-01-25T20:50:11.416Z,-2.34
2019-01-25T20:52:40.570Z,-2.35
2019-01-25T20:55:09.548Z,-2.36
2019-01-25T20:57:38.469Z,-2.40
2019-01-25T21:00:12.428Z,-2.42
2019-01-25T21:02:39.893Z,-2.43
2019-01-25T21:05:07.556Z,-2.45
2019-01-25T21:07:35.118Z,-2.45
2019-01-25T21:10:03.602Z,-2.45
2019-01-25T21:12:31.225Z,-2.47
2019-01-25T21:14:58.440Z,-2.48
2019-01-25T21:17:25.549Z,-2.47
2019-01-25T21:19:52.700Z,-2.48
2019-01-25T21:22:19.822Z,-2.52
2019-01-25T21:24:46.991Z,-2.52
2019-01-25T21:27:14.663Z,-2.51
2019-01-25T21:29:42.247Z,-2.52
2019-01-25T21:32:09.546Z,-2.54
2019-01-25T21:34:36.839Z,-2.58
2019-01-25T21:37:04.169Z,-2.65
2019-01-25T21:39:31.545Z,-2.66
2019-01-25T21:41:58.676Z,-2.67
2019-01-25T21:44:25.811Z,-2.66
2019-01-25T21:46:56.537Z,-2.67
2019-01-25T21:49:23.618Z,-2.65
2019-01-25T21:51:50.776Z,-2.66
2019-01-25T21:54:17.944Z,-2.66
2019-01-25T21:56:45.058Z,-2.67
2019-01-25T21:59:12.264Z,-2.67
2019-01-25T22:01:42.323Z,-2.69
2019-01-25T22:04:16.262Z,-2.70
2019-01-25T22:06:43.412Z,-2.70
2019-01-25T22:09:14.374Z,-2.69
2019-01-25T22:11:46.719Z,-2.70
2019-01-25T22:14:13.823Z,-2.72
2019-01-25T22:16:40.982Z,-2.73
2019-01-25T22:19:10.345Z,-2.75
2019-01-25T22:21:39.988Z,-2.81
2019-01-25T22:24:07.104Z,-2.86
2019-01-25T22:26:36.062Z,-2.92
2019-01-25T22:29:03.323Z,-2.97
2019-01-25T22:31:30.428Z,-3.00
2019-01-25T22:33:57.577Z,-3.00
2019-01-25T22:36:24.753Z,-3.00
2019-01-25T22:38:53.326Z,-3.00
2019-01-25T22:41:49.981Z,-2.99
2019-01-25T22:44:19.889Z,-2.99
2019-01-25T22:46:50.572Z,-2.97
2019-01-25T22:49:19.740Z,-2.97
2019-01-25T22:51:46.866Z,-2.99
2019-01-25T22:54:14.004Z,-3.03
2019-01-25T22:56:41.117Z,-3.05
2019-01-25T22:59:08.340Z,-3.07
2019-01-25T23:01:35.772Z,-3.10
2019-01-25T23:04:32.719Z,-3.10
2019-01-25T23:07:21.720Z,-3.08
2019-01-25T23:09:56.504Z,-3.07
2019-01-25T23:12:23.612Z,-3.05
2019-01-25T23:14:50.744Z,-3.03
2019-01-25T23:17:17.865Z,-3.04
2019-01-25T23:19:45.316Z,-3.03
2019-01-25T23:22:12.496Z,-3.02
2019-01-25T23:24:39.647Z,-3.01
2019-01-25T23:27:06.740Z,-3.03
2019-01-25T23:29:35.343Z,-3.02
2019-01-25T23:32:02.848Z,-3.02
2019-01-25T23:34:30.020Z,-3.02
2019-01-25T23:36:57.114Z,-3.03
2019-01-25T23:39:27.292Z,-3.02
2019-01-25T23:41:54.726Z,-3.01
2019-01-25T23:44:23.764Z,-3.01
2019-01-25T23:46:56.730Z,-2.99
2019-01-25T23:49:25.011Z,-2.96
2019-01-25T23:51:52.444Z,-2.96
2019-01-25T23:54:22.652Z,-2.97
2019-01-25T23:56:52.103Z,-2.96
2019-01-25T23:59:19.310Z,-2.97
